Time;durP1;ratioP1;P1;durP2;ratioP2;P2;SDS_P1;SDS_P2;PMS_P1;PMS_P2;Temp;Humidity;BMP_temperature;BMP_pressure;BME280_temperature;BME280_humidity;BME280_pressure;Samples;Min_cycle;Max_cycle;Signal;HPM_P1;HPM_P2
2021/11/12 00:12:57;;;;;;;25.77;13.47;;;;;;;4.59;100.00;99402.72;5034712;28;20462;-56
2021/11/12 00:15:22;;;;;;;;;;;;;;;4.66;100.00;99402.03;5033791;28;20617;-54
2021/11/12 00:17:48;;;;;;;29.17;15.27;;;;;;;4.73;100.00;99402.97;5035905;28;19916;-57
2021/11/12 00:20:13;;;;;;;27.07;14.07;;;;;;;4.63;100.00;99401.94;5039325;28;20032;-55
2021/11/12 00:22:39;;;;;;;26.13;13.53;;;;;;;4.64;100.00;99400.25;5039103;28;20041;-57
2021/11/12 00:25:05;;;;;;;33.80;15.40;;;;;;;4.52;100.00;99396.69;5040107;28;20390;-59
2021/11/12 00:27:33;;;;;;;24.87;13.03;;;;;;;4.59;100.00;99401.03;5041784;28;20040;-57
2021/11/12 00:30:05;;;;;;;24.93;13.23;;;;;;;4.63;100.00;99398.53;5038501;28;20049;-58
2021/11/12 00:32:43;;;;;;;24.33;12.47;;;;;;;4.66;100.00;99393.53;5038177;28;20534;-58
2021/11/12 00:35:25;;;;;;;24.83;14.10;;;;;;;4.58;100.00;99398.50;5035926;28;20103;-58
2021/11/12 00:38:13;;;;;;;26.30;12.97;;;;;;;4.65;100.00;99395.22;5036852;28;20029;-58
2021/11/12 00:43:28;;;;;;;21.80;12.17;;;;;;;4.72;100.00;99393.63;5040387;28;20057;-55
2021/11/12 00:46:08;;;;;;;23.70;12.93;;;;;;;4.51;100.00;99394.13;5036184;28;20030;-57
2021/11/12 00:48:38;;;;;;;20.47;11.57;;;;;;;4.58;100.00;99395.97;5039417;28;20025;-56
2021/11/12 00:54:05;;;;;;;28.30;12.67;;;;;;;4.51;100.00;99392.44;5038660;28;20124;-57
2021/11/12 00:56:31;;;;;;;18.17;11.13;;;;;;;4.50;100.00;99397.47;5038723;28;20056;-56
2021/11/12 00:58:59;;;;;;;24.03;12.23;;;;;;;4.51;100.00;99389.91;5040325;28;20038;-57
2021/11/12 01:01:28;;;;;;;22.53;12.43;;;;;;;4.44;100.00;99392.31;5040797;28;20040;-57
2021/11/12 01:03:54;;;;;;;28.13;12.23;;;;;;;4.51;100.00;99389.91;5039438;28;20036;-58
2021/11/12 01:06:21;;;;;;;23.50;12.53;;;;;;;4.59;100.00;99382.41;5037964;28;20018;-58
2021/11/12 01:08:47;;;;;;;23.63;12.63;;;;;;;4.54;100.00;99394.19;5035929;28;20057;-58
2021/11/12 01:11:15;;;;;;;28.17;13.37;;;;;;;4.41;100.00;99385.47;5040034;28;20495;-58
2021/11/12 01:13:42;;;;;;;25.17;13.00;;;;;;;4.49;100.00;99389.03;5037898;28;20033;-57
2021/11/12 01:16:08;;;;;;;23.23;12.27;;;;;;;4.53;100.00;99389.94;5036759;28;20029;-58
2021/11/12 01:18:36;;;;;;;20.93;11.33;;;;;;;4.51;100.00;99382.28;5038444;28;20029;-58
2021/11/12 01:21:07;;;;;;;22.13;10.73;;;;;;;4.66;100.00;99384.25;5042219;28;20061;-58
2021/11/12 01:23:33;;;;;;;22.50;10.87;;;;;;;4.54;100.00;99381.50;5045060;28;20030;-56
2021/11/12 01:25:59;;;;;;;20.43;11.33;;;;;;;4.57;100.00;99376.47;5037667;28;20060;-57
2021/11/12 01:28:25;;;;;;;19.43;11.00;;;;;;;4.56;100.00;99373.06;5035361;28;20233;-59
2021/11/12 01:30:52;;;;;;;16.47;9.00;;;;;;;4.56;100.00;99377.28;5038424;28;20033;-57
2021/11/12 01:33:18;;;;;;;21.20;10.47;;;;;;;4.53;100.00;99377.25;5037203;28;20067;-58
2021/11/12 01:35:44;;;;;;;15.07;9.33;;;;;;;4.44;100.00;99377.94;5037469;28;20033;-58
2021/11/12 01:38:09;;;;;;;19.13;10.90;;;;;;;4.47;100.00;99377.13;5039123;28;20060;-57
2021/11/12 01:40:35;;;;;;;22.17;10.53;;;;;;;4.48;100.00;99377.16;5038510;28;20030;-59
2021/11/12 01:43:29;;;;;;;19.17;9.73;;;;;;;4.49;100.00;99372.94;5038101;28;20048;-58
2021/11/12 01:49:10;;;;;;;20.67;10.50;;;;;;;4.51;100.00;99377.22;5041265;28;20048;-60
2021/11/12 01:54:08;;;;;;;19.13;9.60;;;;;;;4.49;100.00;99366.19;5041948;28;20379;-59
2021/11/12 01:57:10;;;;;;;20.37;10.03;;;;;;;4.48;100.00;99361.06;5041580;28;20051;-59
2021/11/12 01:59:27;;;;;;;17.70;8.83;;;;;;;4.47;100.00;99361.91;5039607;28;20021;-58
2021/11/12 02:01:58;;;;;;;18.97;9.43;;;;;;;4.48;100.00;99366.16;5037488;28;20071;-58
2021/11/12 02:04:27;;;;;;;16.13;8.93;;;;;;;4.56;100.00;99370.53;5035644;28;20064;-58
2021/11/12 02:06:54;;;;;;;18.20;10.60;;;;;;;4.54;100.00;99363.72;5036886;28;20075;-58
2021/11/12 02:09:21;;;;;;;14.40;8.53;;;;;;;4.46;100.00;99360.19;5042206;28;20041;-54
2021/11/12 02:12:10;;;;;;;18.97;10.57;;;;;;;4.43;100.00;99355.06;5036806;28;20036;-58
2021/11/12 02:14:36;;;;;;;16.40;8.70;;;;;;;4.49;100.00;99358.56;5038638;28;20040;-57
2021/11/12 02:17:12;;;;;;;18.30;9.57;;;;;;;4.57;100.00;99357.00;5038601;28;20064;-53
2021/11/12 02:19:38;;;;;;;19.10;9.97;;;;;;;4.45;100.00;99354.28;5037592;28;20034;-58
2021/11/12 02:24:34;;;;;;;18.37;10.37;;;;;;;4.49;100.00;99345.88;5036800;28;20033;-57
2021/11/12 02:27:01;;;;;;;15.50;8.70;;;;;;;4.56;100.00;99347.69;5041888;28;20029;-59
2021/11/12 02:29:27;;;;;;;14.77;8.43;;;;;;;4.52;100.00;99343.38;5034845;28;20041;-58
2021/11/12 02:31:53;;;;;;;13.90;8.70;;;;;;;4.52;100.00;99345.91;5037519;28;20026;-58
2021/11/12 02:34:19;;;;;;;19.27;9.03;;;;;;;4.44;100.00;99349.16;5036860;28;20116;-59
2021/11/12 02:36:44;;;;;;;15.63;8.10;;;;;;;4.42;100.00;99336.44;5036812;28;20028;-54
2021/11/12 02:39:13;;;;;;;15.90;8.60;;;;;;;4.40;100.00;99340.66;5036937;28;20108;-57
2021/11/12 02:41:40;;;;;;;18.63;9.67;;;;;;;4.42;100.00;99344.03;5037852;28;20034;-57
2021/11/12 02:44:07;;;;;;;15.47;9.00;;;;;;;4.40;100.00;99345.72;5040160;28;20053;-57
2021/11/12 02:46:32;;;;;;;17.50;9.43;;;;;;;4.37;100.00;99347.34;5035948;28;20364;-56
2021/11/12 02:48:59;;;;;;;13.37;8.60;;;;;;;4.43;100.00;99348.31;5039928;28;20033;-54
2021/11/12 02:51:29;;;;;;;16.53;9.10;;;;;;;4.32;100.00;99346.41;5036229;28;20029;-59
2021/11/12 02:53:57;;;;;;;17.87;10.00;;;;;;;4.42;100.00;99346.59;5039252;28;20495;-57
2021/11/12 02:56:33;;;;;;;15.53;9.97;;;;;;;4.45;100.00;99343.25;5035715;28;20033;-54
2021/11/12 02:59:10;;;;;;;15.50;9.67;;;;;;;4.51;100.00;99345.88;5039377;28;20067;-59
2021/11/12 03:01:44;;;;;;;19.47;10.33;;;;;;;4.56;100.00;99350.22;5032964;28;20091;-58
2021/11/12 03:04:10;;;;;;;15.43;9.53;;;;;;;4.51;100.00;99345.88;5032942;28;20029;-59
2021/11/12 03:06:36;;;;;;;20.37;9.83;;;;;;;4.52;100.00;99348.47;5034823;28;20033;-57
2021/11/12 03:09:06;;;;;;;15.37;8.97;;;;;;;4.51;100.00;99351.81;5035201;28;20029;-57
2021/11/12 03:11:33;;;;;;;19.00;10.00;;;;;;;4.46;100.00;99350.88;5039331;28;20479;-57
2021/11/12 03:13:58;;;;;;;16.83;9.20;;;;;;;4.51;100.00;99343.34;5037455;28;20033;-58
2021/11/12 03:16:24;;;;;;;16.80;9.47;;;;;;;4.42;100.00;99351.66;5037887;28;20516;-57
2021/11/12 03:18:50;;;;;;;19.93;9.70;;;;;;;4.38;100.00;99346.50;5040525;28;20082;-57
2021/11/12 03:21:19;;;;;;;15.47;8.57;;;;;;;4.41;100.00;99347.41;5037324;28;20031;-57
2021/11/12 03:23:58;;;;;;;14.67;9.93;;;;;;;4.33;100.00;99343.88;5034572;28;20033;-57
2021/11/12 04:02:09;;;;;;;21.47;9.30;;;;;;;4.39;100.00;99348.22;4980498;28;20089;-56
2021/11/12 04:18:08;;;;;;;18.07;9.90;;;;;;;4.22;100.00;99334.38;4984126;28;20080;-56
2021/11/12 05:10:14;;;;;;;15.97;9.87;;;;;;;4.21;100.00;99323.38;5039045;28;20132;-57
2021/11/12 05:45:21;;;;;;;13.90;8.07;;;;;;;4.01;100.00;99328.09;5035764;28;20044;-57
2021/11/12 05:55:50;;;;;;;13.00;7.80;;;;;;;4.05;100.00;99326.47;5036950;28;20403;-56
2021/11/12 05:58:16;;;;;;;14.67;7.47;;;;;;;4.05;100.00;99322.25;5041243;28;20036;-56
2021/11/12 06:00:42;;;;;;;12.63;6.90;;;;;;;4.00;100.00;99326.41;5038049;28;20021;-55
2021/11/12 06:03:07;;;;;;;12.63;7.57;;;;;;;3.93;100.00;99329.66;5041691;28;20417;-54
2021/11/12 06:05:33;;;;;;;16.03;9.13;;;;;;;3.98;100.00;99329.75;5036719;28;20025;-56
2021/11/12 06:07:58;;;;;;;13.93;8.50;;;;;;;4.00;100.00;99326.41;5040120;28;20068;-55
2021/11/12 06:10:24;;;;;;;17.00;8.73;;;;;;;3.91;100.00;99332.97;5036169;28;20074;-56
2021/11/12 06:12:49;;;;;;;15.83;9.00;;;;;;;3.92;100.00;99337.22;5034055;28;20048;-56
2021/11/12 06:15:15;;;;;;;15.43;8.17;;;;;;;4.02;100.00;99339.13;5037202;28;20491;-54
2021/11/12 06:17:42;;;;;;;16.40;8.40;;;;;;;4.04;100.00;99329.84;5037321;28;20040;-57
2021/11/12 06:20:10;;;;;;;13.63;7.70;;;;;;;3.98;100.00;99334.81;5038294;28;20029;-56
2021/11/12 06:22:35;;;;;;;13.43;8.17;;;;;;;4.04;100.00;99343.38;5038403;28;20534;-56
2021/11/12 06:25:01;;;;;;;10.93;7.23;;;;;;;4.06;100.00;99344.28;5037850;28;20140;-54
2021/11/12 06:27:26;;;;;;;14.13;7.80;;;;;;;4.14;100.00;99341.88;5036457;28;20040;-56
2021/11/12 06:29:53;;;;;;;11.37;7.20;;;;;;;4.14;100.00;99342.72;5036139;28;20025;-56
2021/11/12 06:32:18;;;;;;;13.70;7.80;;;;;;;4.24;100.00;99347.97;5039563;28;20496;-53
2021/11/12 06:34:44;;;;;;;10.57;6.83;;;;;;;4.22;100.00;99349.63;5038857;28;20424;-53
2021/11/12 06:37:11;;;;;;;10.97;6.73;;;;;;;4.17;100.00;99344.47;5034864;28;20041;-55
2021/11/12 06:39:37;;;;;;;10.73;6.50;;;;;;;4.20;100.00;99346.22;5037165;28;20124;-56
2021/11/12 06:42:10;;;;;;;14.37;7.87;;;;;;;4.29;100.00;99344.66;5036313;28;20052;-56
2021/11/12 06:50:03;;;;;;;15.97;7.17;;;;;;;4.24;100.00;99346.28;5036508;28;20071;-54
2021/11/12 06:52:31;;;;;;;14.67;7.13;;;;;;;4.23;100.00;99352.19;5038796;28;20424;-55
2021/11/12 06:55:00;;;;;;;13.97;8.20;;;;;;;4.33;100.00;99351.50;5033756;28;20041;-54
2021/11/12 06:57:27;;;;;;;13.33;7.93;;;;;;;4.37;100.00;99355.81;5036764;28;20124;-56
2021/11/12 06:59:52;;;;;;;15.23;9.87;;;;;;;4.43;100.00;99358.47;5036511;28;20026;-58
2021/11/12 07:02:20;;;;;;;10.37;7.00;;;;;;;4.59;100.00;99357.03;5034108;28;20032;-57
2021/11/12 07:04:46;;;;;;;9.47;5.57;;;;;;;4.52;100.00;99352.69;5036865;28;20507;-58
2021/11/12 07:07:11;;;;;;;10.63;7.17;;;;;;;4.55;100.00;99350.19;5037970;28;20051;-57
2021/11/12 07:09:39;;;;;;;12.40;6.40;;;;;;;4.49;100.00;99350.97;5036936;28;20104;-54
2021/11/12 07:12:05;;;;;;;9.23;6.20;;;;;;;4.47;100.00;99344.13;5036283;28;20043;-56
2021/11/12 07:14:31;;;;;;;9.60;6.43;;;;;;;4.52;100.00;99352.69;5031984;28;20033;-56
2021/11/12 07:16:56;;;;;;;9.87;5.90;;;;;;;4.58;100.00;99351.09;5036114;28;20037;-56
2021/11/12 07:19:22;;;;;;;11.20;6.13;;;;;;;4.57;100.00;99354.47;5037628;28;20036;-57
2021/11/12 07:21:48;;;;;;;9.30;6.03;;;;;;;4.56;100.00;99344.28;5035800;28;20037;-53
2021/11/12 07:24:14;;;;;;;11.20;6.47;;;;;;;4.59;100.00;99347.72;5036032;28;20029;-59
2021/11/12 07:26:41;;;;;;;10.83;5.47;;;;;;;4.43;100.00;99355.91;5040869;28;20048;-55
2021/11/12 07:29:06;;;;;;;9.47;5.37;;;;;;;4.51;100.00;99354.34;5039638;28;20462;-57
2021/11/12 07:31:32;;;;;;;9.83;5.40;;;;;;;4.55;100.00;99357.81;5040899;28;20057;-56
2021/11/12 07:34:00;;;;;;;12.13;6.67;;;;;;;4.59;100.00;99357.03;5037883;28;20144;-55
2021/11/12 07:36:37;;;;;;;12.67;6.03;;;;;;;4.66;100.00;99358.84;5041938;28;20056;-57
2021/11/12 07:39:08;;;;;;;10.30;5.90;;;;;;;4.72;100.00;99358.94;5041690;28;20056;-57
2021/11/12 07:44:16;;;;;;;10.87;6.80;;;;;;;4.84;100.00;99360.78;5038846;28;20061;-55
2021/11/12 07:47:10;;;;;;;15.00;9.23;;;;;;;4.87;100.00;99355.78;5041363;28;20029;-58
2021/11/12 07:49:27;;;;;;;12.63;7.32;;;;;;;4.62;100.00;99362.16;5040252;28;20590;-58
2021/11/12 07:51:53;;;;;;;11.33;6.83;;;;;;;4.63;100.00;99357.91;5040709;28;20175;-57
2021/11/12 07:54:19;;;;;;;10.73;7.13;;;;;;;4.76;100.00;99362.38;5040440;28;20171;-58
2021/11/12 07:56:45;;;;;;;9.83;6.03;;;;;;;4.60;100.00;99358.72;5042639;28;20037;-57
2021/11/12 07:59:11;;;;;;;11.93;7.43;;;;;;;4.58;100.00;99363.78;5042818;28;20044;-57
2021/11/12 08:01:37;;;;;;;11.57;6.00;;;;;;;4.73;100.00;99358.09;5039203;28;20029;-58
2021/11/12 08:04:04;;;;;;;11.03;6.70;;;;;;;4.86;100.00;99354.94;5039010;28;20120;-58
2021/11/12 08:06:32;;;;;;;8.13;5.30;;;;;;;4.68;100.00;99351.22;5040127;28;20033;-56
2021/11/12 08:09:11;;;;;;;9.27;5.83;;;;;;;4.80;100.00;99361.59;5040671;28;20112;-56
2021/11/12 08:19:16;;;;;;;11.50;7.33;;;;;;;4.97;100.00;99343.22;5042656;28;20468;-58
2021/11/12 08:29:43;;;;;;;9.47;5.67;;;;;;;4.97;100.00;99350.00;5039249;28;20037;-55
2021/11/12 08:42:19;;;;;;;10.67;6.63;;;;;;;5.27;100.00;99352.09;5041424;28;20025;-56
2021/11/12 08:44:51;;;;;;;12.20;7.53;;;;;;;5.23;100.00;99353.75;5040486;28;20033;-54
2021/11/12 08:47:20;;;;;;;13.67;8.83;;;;;;;5.25;100.00;99351.25;5038980;28;20120;-57
2021/11/12 08:49:46;;;;;;;11.27;6.80;;;;;;;5.27;100.00;99350.44;5041928;28;20037;-56
2021/11/12 08:52:15;;;;;;;11.27;7.20;;;;;;;5.36;100.00;99350.56;5039702;28;20036;-57
2021/11/12 08:54:44;;;;;;;14.63;9.03;;;;;;;5.30;100.00;99350.50;5037868;28;20048;-56
2021/11/12 08:57:15;;;;;;;16.50;8.40;;;;;;;5.32;100.00;99358.13;5040165;28;20128;-57
2021/11/12 08:59:52;;;;;;;12.13;7.80;;;;;;;5.34;100.00;99367.50;5041797;28;20467;-58
2021/11/12 09:02:24;;;;;;;14.37;8.57;;;;;;;5.31;100.00;99358.94;5038609;28;20382;-57
2021/11/12 09:04:50;;;;;;;11.93;8.20;;;;;;;5.11;100.00;99352.75;5036790;28;20079;-58
2021/11/12 09:07:17;;;;;;;15.50;9.43;;;;;;;4.97;100.00;99353.38;5038948;28;20437;-58
2021/11/12 09:09:50;;;;;;;15.50;8.87;;;;;;;5.11;100.00;99358.69;5038280;28;20041;-55
2021/11/12 09:12:18;;;;;;;18.10;11.03;;;;;;;5.15;100.00;99360.44;5042055;28;20091;-59
2021/11/12 09:14:48;;;;;;;13.43;7.80;;;;;;;5.17;100.00;99360.47;5036007;28;20034;-57
2021/11/12 09:17:16;;;;;;;15.67;9.27;;;;;;;5.24;100.00;99352.94;5040541;28;20061;-58
2021/11/12 09:19:50;;;;;;;14.13;9.57;;;;;;;5.31;100.00;99348.78;5039562;28;20033;-54
2021/11/12 09:22:19;;;;;;;16.63;9.97;;;;;;;5.42;100.00;99354.88;5036319;28;20518;-57
2021/11/12 09:24:45;;;;;;;15.27;8.80;;;;;;;5.35;100.00;99350.53;5036346;28;20131;-58
2021/11/12 09:27:12;;;;;;;16.37;8.73;;;;;;;5.44;100.00;99348.97;5038021;28;20053;-57
2021/11/12 09:29:38;;;;;;;15.03;9.20;;;;;;;5.43;100.00;99344.72;5036804;28;20021;-57
2021/11/12 09:32:04;;;;;;;20.30;9.40;;;;;;;5.45;100.00;99352.38;5036125;28;20017;-59
2021/11/12 09:34:34;;;;;;;12.97;8.43;;;;;;;5.46;100.00;99349.84;5040229;28;20055;-58
2021/11/12 09:37:01;;;;;;;14.50;8.43;;;;;;;5.53;100.00;99343.13;5038591;28;20052;-56
2021/11/12 09:39:26;;;;;;;17.90;10.83;;;;;;;5.58;100.00;99349.16;5039659;28;20025;-57
2021/11/12 09:41:52;;;;;;;14.03;8.60;;;;;;;5.56;100.00;99345.72;5038616;28;20488;-57
2021/11/12 09:44:17;;;;;;;14.87;8.73;;;;;;;5.61;100.00;99338.13;5041107;28;20344;-57
2021/11/12 09:46:43;;;;;;;12.30;8.07;;;;;;;5.62;100.00;99334.78;5041452;28;20033;-58
2021/11/12 09:49:09;;;;;;;12.57;8.47;;;;;;;5.62;100.00;99329.69;5037345;28;20049;-58
2021/11/12 09:51:34;;;;;;;13.70;8.13;;;;;;;5.66;100.00;99323.78;5034064;28;20060;-59
2021/11/12 09:54:00;;;;;;;16.57;9.03;;;;;;;5.69;100.00;99323.81;5036104;28;20037;-58
2021/11/12 09:56:26;;;;;;;14.33;7.63;;;;;;;5.70;100.00;99323.00;5036384;28;20029;-56
2021/11/12 09:58:52;;;;;;;13.50;7.90;;;;;;;5.63;100.00;99324.63;5036985;28;20025;-58
2021/11/12 10:01:27;;;;;;;14.53;8.00;;;;;;;5.36;100.00;99314.09;5036724;28;20463;-58
2021/11/12 10:03:53;;;;;;;16.93;8.93;;;;;;;5.33;100.00;99302.22;5036327;28;20068;-57
2021/11/12 10:06:23;;;;;;;14.00;8.33;;;;;;;5.29;100.00;99303.03;5035726;28;20563;-59
2021/11/12 10:08:50;;;;;;;14.27;9.33;;;;;;;5.40;100.00;99300.59;5035829;28;20407;-57
2021/11/12 10:11:25;;;;;;;15.80;9.30;;;;;;;5.51;100.00;99286.34;5033299;28;20028;-57
2021/11/12 10:13:59;;;;;;;15.15;8.90;;;;;;;5.59;100.00;99289.81;5035798;28;20064;-57
2021/11/12 10:16:35;;;;;;;16.83;8.77;;;;;;;5.69;100.00;99272.94;5038867;28;20079;-55
2021/11/12 10:19:03;;;;;;;15.53;9.53;;;;;;;5.71;100.00;99272.16;5036281;28;20033;-57
2021/11/12 10:21:45;;;;;;;13.60;8.80;;;;;;;5.75;100.00;99268.78;5035221;28;20394;-56
2021/11/12 10:24:17;;;;;;;19.17;8.53;;;;;;;5.80;100.00;99269.69;5035948;28;20395;-58
2021/11/12 10:26:45;;;;;;;16.00;9.17;;;;;;;5.77;100.00;99272.19;5037806;28;20045;-56
2021/11/12 10:29:14;;;;;;;17.93;9.93;;;;;;;5.79;100.00;99270.53;5035973;28;20037;-59
2021/11/12 10:31:55;;;;;;;15.37;8.60;;;;;;;5.86;100.00;99266.34;5034285;28;20046;-58
2021/11/12 10:34:24;;;;;;;19.70;9.00;;;;;;;5.88;100.00;99265.56;5031361;28;20021;-59
2021/11/12 10:36:59;;;;;;;14.97;8.30;;;;;;;5.92;100.00;99261.34;5036788;28;20033;-58
2021/11/12 10:39:32;;;;;;;19.97;9.93;;;;;;;5.91;100.00;99254.56;5037192;28;20026;-57
2021/11/12 10:42:00;;;;;;;14.67;9.37;;;;;;;5.94;100.00;99254.63;5038118;28;20037;-58
2021/11/12 10:44:27;;;;;;;14.77;8.60;;;;;;;5.98;100.00;99247.00;5038635;28;20132;-58
2021/11/12 10:46:52;;;;;;;16.23;9.40;;;;;;;5.92;100.00;99238.47;5032927;28;20025;-57
2021/11/12 10:49:29;;;;;;;18.70;8.73;;;;;;;6.00;100.00;99248.69;5035604;28;20629;-58
2021/11/12 10:52:07;;;;;;;21.27;10.43;;;;;;;6.02;100.00;99247.03;5035916;28;20116;-58
2021/11/12 10:54:40;;;;;;;20.37;10.10;;;;;;;6.00;100.00;99231.75;5035434;28;20111;-57
2021/11/12 10:57:07;;;;;;;19.83;9.10;;;;;;;6.01;100.00;99232.59;5034636;28;20042;-55
2021/11/12 10:59:35;;;;;;;19.00;9.93;;;;;;;6.07;100.00;99225.03;5036771;28;20068;-57
2021/11/12 11:02:00;;;;;;;18.63;9.27;;;;;;;5.95;100.00;99221.53;5039426;28;20052;-57
2021/11/12 11:04:26;;;;;;;20.37;11.40;;;;;;;5.97;100.00;99224.09;5039447;28;20103;-58
2021/11/12 11:06:52;;;;;;;21.30;10.27;;;;;;;5.93;100.00;99223.22;5037239;28;20025;-56
2021/11/12 11:09:19;;;;;;;18.80;11.07;;;;;;;5.95;100.00;99218.13;5037716;28;20025;-56
2021/11/12 11:11:47;;;;;;;25.40;12.13;;;;;;;5.81;100.00;99217.13;5038330;28;20079;-58
2021/11/12 11:14:27;;;;;;;24.60;11.20;;;;;;;5.91;100.00;99213.84;5037303;28;20037;-58
2021/11/12 11:16:53;;;;;;;23.40;11.57;;;;;;;5.88;100.00;99204.50;5038621;28;20501;-58
2021/11/12 11:19:36;;;;;;;26.80;12.93;;;;;;;5.93;100.00;99202.00;5037529;28;20029;-59
2021/11/12 11:22:10;;;;;;;23.20;12.10;;;;;;;5.87;100.00;99207.88;5037607;28;20065;-58
2021/11/12 11:24:37;;;;;;;28.03;12.40;;;;;;;5.79;100.00;99188.25;5040029;28;20033;-55
2021/11/12 11:27:04;;;;;;;24.57;11.83;;;;;;;5.80;100.00;99193.38;5038856;28;20471;-58
2021/11/12 11:29:30;;;;;;;26.53;12.00;;;;;;;5.83;100.00;99192.53;5039450;28;20032;-57
2021/11/12 11:31:58;;;;;;;22.73;12.47;;;;;;;5.82;100.00;99194.22;5039315;28;20347;-59
2021/11/12 11:34:25;;;;;;;22.70;12.30;;;;;;;5.66;100.00;99189.00;5041097;28;20067;-58
2021/11/12 11:36:56;;;;;;;21.30;12.23;;;;;;;5.72;100.00;99189.91;5041524;28;20109;-58
2021/11/12 11:39:22;;;;;;;20.03;11.80;;;;;;;5.79;100.00;99180.63;5040311;28;20064;-58
2021/11/12 11:41:49;;;;;;;21.17;11.57;;;;;;;5.81;100.00;99177.25;5039466;28;20416;-58
2021/11/12 11:44:15;;;;;;;21.90;10.03;;;;;;;5.73;100.00;99170.41;5037869;28;20056;-59
2021/11/12 11:46:44;;;;;;;17.97;11.00;;;;;;;5.81;100.00;99164.53;5039278;28;20029;-58
2021/11/12 11:49:16;;;;;;;20.37;11.57;;;;;;;5.84;100.00;99156.09;5037257;28;20032;-57
2021/11/12 11:52:04;;;;;;;16.33;10.67;;;;;;;5.69;100.00;99154.25;5037301;28;20030;-58
2021/11/12 11:54:45;;;;;;;20.73;11.03;;;;;;;5.68;100.00;99160.19;5035423;28;20116;-57
2021/11/12 11:57:13;;;;;;;17.50;10.20;;;;;;;5.68;100.00;99150.03;5039806;28;20025;-56
2021/11/12 11:59:40;;;;;;;18.00;10.57;;;;;;;5.72;100.00;99145.81;5040300;28;20029;-56
2021/11/12 12:02:12;;;;;;;17.37;10.77;;;;;;;5.84;100.00;99145.91;5032672;28;20021;-59
2021/11/12 12:04:55;;;;;;;22.23;13.07;;;;;;;5.89;100.00;99144.28;5034944;28;20032;-58
2021/11/12 12:07:23;;;;;;;20.03;11.47;;;;;;;5.94;100.00;99148.56;5032890;28;20705;-56
2021/11/12 12:10:02;;;;;;;19.50;11.93;;;;;;;6.00;100.00;99140.13;5035468;28;20033;-56
2021/11/12 12:12:31;;;;;;;18.53;11.07;;;;;;;6.01;100.00;99141.84;5038037;28;20033;-57
2021/11/12 12:15:05;;;;;;;17.10;10.17;;;;;;;5.99;100.00;99130.78;5038935;28;20094;-57
2021/11/12 12:17:39;;;;;;;17.73;9.60;;;;;;;5.96;100.00;99128.22;5038695;28;20044;-57
2021/11/12 13:25:56;;;;;;;23.70;14.63;;;;;;;6.10;100.00;99079.97;5043655;28;20040;-59
2021/11/12 13:28:26;;;;;;;20.43;13.20;;;;;;;6.03;100.00;99079.06;5040828;28;20383;-60
2021/11/12 13:30:58;;;;;;;21.23;14.07;;;;;;;6.09;100.00;99079.13;5042314;28;20025;-57
2021/11/12 13:33:26;;;;;;;19.70;13.17;;;;;;;6.12;100.00;99078.25;5040432;28;20022;-57
2021/11/12 13:35:52;;;;;;;20.80;13.43;;;;;;;6.10;100.00;99062.16;5041918;28;20330;-58
2021/11/12 13:38:17;;;;;;;22.43;14.03;;;;;;;6.10;100.00;99065.56;5039286;28;20017;-59
2021/11/12 13:40:44;;;;;;;24.87;14.67;;;;;;;6.07;100.00;99065.50;5039492;28;20031;-56
2021/11/12 13:43:10;;;;;;;22.00;13.57;;;;;;;6.14;100.00;99063.88;5039829;28;20056;-56
2021/11/12 13:45:35;;;;;;;25.17;13.03;;;;;;;6.10;100.00;99070.63;5042302;28;20025;-56
2021/11/12 13:48:14;;;;;;;24.10;14.00;;;;;;;6.14;100.00;99074.06;5040363;28;20044;-57
2021/11/12 13:50:42;;;;;;;24.07;13.67;;;;;;;6.17;100.00;99071.50;5044514;28;20507;-60
2021/11/12 13:53:08;;;;;;;23.10;13.60;;;;;;;6.15;100.00;99066.44;5041385;28;20028;-58
2021/11/12 13:55:38;;;;;;;22.53;14.70;;;;;;;6.18;100.00;99056.25;5036514;28;20029;-60
2021/11/12 13:58:05;;;;;;;23.57;14.37;;;;;;;6.24;100.00;99051.19;5036532;28;20037;-57
2021/11/12 14:00:33;;;;;;;27.60;15.43;;;;;;;6.21;100.00;99053.72;5036078;28;20116;-57
2021/11/12 14:03:07;;;;;;;20.23;13.53;;;;;;;6.13;100.00;99050.28;5039558;28;20055;-56
2021/11/12 14:05:34;;;;;;;21.83;13.17;;;;;;;6.18;100.00;99053.72;5038383;28;20396;-58
2021/11/12 14:08:00;;;;;;;24.47;14.53;;;;;;;6.11;100.00;99054.50;5036086;28;20050;-59
2021/11/12 14:10:33;;;;;;;24.57;14.97;;;;;;;6.07;100.00;99054.50;5037860;28;20468;-58
2021/11/12 14:12:58;;;;;;;23.87;14.43;;;;;;;6.05;100.00;99058.72;5040905;28;20037;-57
2021/11/12 14:15:36;;;;;;;25.63;15.00;;;;;;;5.98;100.00;99053.59;5037071;28;20021;-58
2021/11/12 14:20:53;;;;;;;26.03;15.50;;;;;;;5.97;100.00;99056.13;5038287;28;20029;-58
2021/11/12 14:23:22;;;;;;;28.57;16.43;;;;;;;5.99;100.00;99054.44;5038773;28;20035;-57
2021/11/12 14:29:06;;;;;;;29.83;18.70;;;;;;;6.00;100.00;99045.97;5039293;28;20437;-58
2021/11/12 14:34:22;;;;;;;31.83;18.30;;;;;;;6.06;100.00;99035.84;5035956;28;20132;-58
2021/11/12 14:37:08;;;;;;;37.13;20.43;;;;;;;6.05;100.00;99029.03;5039248;28;20383;-56
2021/11/12 14:42:56;;;;;;;41.93;21.70;;;;;;;6.07;100.00;99036.69;5031626;28;20161;-58
2021/11/12 14:48:28;;;;;;;42.43;23.00;;;;;;;6.04;100.00;99031.56;5045458;28;20449;-60
2021/11/12 14:58:44;;;;;;;41.07;21.93;;;;;;;5.98;100.00;99029.84;5037996;28;20082;-57
2021/11/12 15:01:16;;;;;;;37.63;20.63;;;;;;;5.96;100.00;99037.47;5036850;28;20096;-58
2021/11/12 15:03:43;;;;;;;37.07;21.40;;;;;;;6.00;100.00;99037.47;5038960;28;20175;-59
2021/11/12 15:06:14;;;;;;;34.90;21.27;;;;;;;6.06;100.00;99033.28;5039642;28;20056;-56
2021/11/12 15:08:48;;;;;;;38.60;22.67;;;;;;;6.03;100.00;99025.63;5040838;28;20018;-59
2021/11/12 15:11:17;;;;;;;38.13;22.23;;;;;;;6.03;100.00;99027.31;5038634;28;20490;-58
2021/11/12 15:13:44;;;;;;;38.77;22.77;;;;;;;6.03;100.00;99023.06;5041075;28;20056;-59
2021/11/12 15:16:15;;;;;;;38.17;22.30;;;;;;;6.01;100.00;99027.31;5039269;28;20048;-57
2021/11/12 15:18:42;;;;;;;43.97;23.63;;;;;;;6.00;100.00;99032.38;5036843;28;20032;-57
2021/11/12 15:21:14;;;;;;;38.07;22.10;;;;;;;5.97;100.00;99033.22;5035435;28;20041;-56
2021/11/12 15:26:23;;;;;;;38.43;22.67;;;;;;;5.98;100.00;99028.13;5035573;28;20486;-58
2021/11/12 15:29:04;;;;;;;37.97;22.23;;;;;;;5.99;100.00;99029.00;5035437;28;20028;-59
2021/11/12 15:31:45;;;;;;;38.90;22.47;;;;;;;6.00;100.00;99015.44;5036480;28;20030;-59
2021/11/12 15:34:12;;;;;;;36.93;21.97;;;;;;;5.98;100.00;99006.94;5034440;28;20029;-58
2021/11/12 15:36:45;;;;;;;37.40;21.87;;;;;;;5.92;100.00;99012.00;5035418;28;20083;-57
2021/11/12 15:39:13;;;;;;;40.93;23.17;;;;;;;5.94;100.00;99018.78;5036359;28;20071;-58
2021/11/12 15:44:22;;;;;;;38.67;23.20;;;;;;;5.92;100.00;99005.22;5035219;28;20098;-58
2021/11/12 15:46:51;;;;;;;32.97;20.73;;;;;;;5.94;100.00;99016.22;5036542;28;20472;-57
2021/11/12 15:49:19;;;;;;;36.70;21.90;;;;;;;5.95;100.00;99014.53;5039709;28;20045;-59
2021/11/12 15:51:49;;;;;;;38.23;21.73;;;;;;;5.94;100.00;99013.69;5040020;28;20065;-58
2021/11/12 16:12:23;;;;;;;41.37;23.50;;;;;;;5.92;100.00;99019.63;5037899;28;20167;-58
2021/11/12 16:27:29;;;;;;;32.63;19.70;;;;;;;5.93;100.00;99024.75;5039086;28;20621;-60
2021/11/12 16:29:56;;;;;;;33.10;19.93;;;;;;;5.92;100.00;99025.56;5037578;28;20093;-60
2021/11/12 16:32:43;;;;;;;30.13;20.03;;;;;;;5.89;100.00;99024.72;5039911;28;20115;-59
2021/11/12 16:35:15;;;;;;;27.67;18.63;;;;;;;5.97;100.00;99025.59;5039853;28;20450;-58
2021/11/12 16:37:41;;;;;;;28.17;18.77;;;;;;;5.92;100.00;99022.16;5036554;28;20036;-59
2021/11/12 16:45:36;;;;;;;32.13;18.77;;;;;;;5.93;100.00;99022.19;5038807;28;20037;-57
2021/11/12 17:06:31;;;;;;;33.50;19.93;;;;;;;5.85;100.00;99007.69;5037232;28;20044;-58
2021/11/12 17:46:28;;;;;;;31.37;18.50;;;;;;;5.65;100.00;98987.19;5022351;28;20037;-59
2021/11/12 18:07:31;;;;;;;29.40;17.93;;;;;;;5.52;100.00;98980.34;5021899;28;20119;-59
2021/11/12 18:21:00;;;;;;;28.10;17.97;;;;;;;5.27;100.00;98969.16;5004237;28;20066;-59
2021/11/12 18:23:39;;;;;;;29.90;18.83;;;;;;;5.22;100.00;98957.25;5000415;28;20365;-58
2021/11/12 21:45:14;;;;;;;43.70;23.63;;;;;;;1.44;100.00;98864.91;5035610;28;20040;-61